createdAt,value
2022-11-03T00:01:58.688Z,98300.66
2022-11-03T00:04:28.313Z,98298.28
2022-11-03T00:06:57.818Z,98299.56
2022-11-03T00:09:27.794Z,98291.16
2022-11-03T00:11:56.926Z,98294.34
2022-11-03T00:14:27.721Z,98293.84
2022-11-03T00:16:57.333Z,98297.41
2022-11-03T00:19:27.311Z,98298.16
2022-11-03T00:21:58.401Z,98301.56
2022-11-03T00:24:27.772Z,98294.66
2022-11-03T00:26:57.358Z,98295.88
2022-11-03T00:29:28.059Z,98296.22
2022-11-03T00:31:57.589Z,98291.69
2022-11-03T00:34:26.556Z,98294.19
2022-11-03T00:36:56.763Z,98289.63
2022-11-03T00:39:26.271Z,98301.06
2022-11-03T00:41:55.477Z,98299.53
2022-11-03T00:44:24.356Z,98293.03
2022-11-03T00:46:55.294Z,98287.69
2022-11-03T00:49:24.576Z,98293.72
2022-11-03T00:51:54.094Z,98289.63
2022-11-03T00:54:23.523Z,98292.78
2022-11-03T00:56:53.110Z,98283.16
2022-11-03T00:59:22.252Z,98288.25
2022-11-03T01:01:51.529Z,98288.03
2022-11-03T01:04:40.129Z,98284.53
2022-11-03T01:07:09.491Z,98282.16
2022-11-03T01:09:40.309Z,98282.84
2022-11-03T01:12:11.848Z,98279.84
2022-11-03T01:14:42.964Z,98273.97
2022-11-03T01:17:14.451Z,98276.03
2022-11-03T01:19:45.317Z,98276.84
2022-11-03T01:22:15.775Z,98273.31
2022-11-03T01:24:45.382Z,98274.41
2022-11-03T01:27:16.952Z,98274.41
2022-11-03T01:29:46.981Z,98277.47
2022-11-03T01:32:16.744Z,98273.97
2022-11-03T01:34:47.652Z,98272.84
2022-11-03T01:37:16.755Z,98267.22
2022-11-03T01:39:46.089Z,98266.56
2022-11-03T01:42:15.540Z,98265.00
2022-11-03T01:44:46.747Z,98257.56
2022-11-03T01:47:23.097Z,98258.38
2022-11-03T01:49:56.536Z,98259.50
2022-11-03T01:52:29.471Z,98257.19
2022-11-03T01:55:02.331Z,98254.69
2022-11-03T01:57:36.088Z,98259.50
2022-11-03T02:00:07.182Z,98257.56
2022-11-03T02:02:36.543Z,98254.09
2022-11-03T02:05:09.258Z,98247.72
2022-11-03T02:07:41.994Z,98241.59
2022-11-03T02:10:11.259Z,98237.72
2022-11-03T02:12:41.612Z,98239.06
2022-11-03T02:15:13.688Z,98236.81
2022-11-03T02:17:44.256Z,98228.41
2022-11-03T02:20:18.062Z,98227.59
2022-11-03T02:23:20.058Z,98231.41
2022-11-03T02:25:52.266Z,98224.69
2022-11-03T02:28:23.106Z,98219.44
2022-11-03T02:30:59.154Z,98227.97
2022-11-03T02:33:43.559Z,98219.22
2022-11-03T02:36:16.459Z,98214.97
2022-11-03T02:38:49.704Z,98222.56
2022-11-03T02:41:20.934Z,98218.59
2022-11-03T02:43:51.156Z,98219.97
2022-11-03T02:46:20.951Z,98225.16
2022-11-03T02:48:50.594Z,98215.38
2022-11-03T02:51:20.106Z,98221.38
2022-11-03T02:53:58.226Z,98224.94
2022-11-03T02:56:30.068Z,98227.19
2022-11-03T02:59:00.857Z,98227.03
2022-11-03T03:01:39.871Z,98232.94
2022-11-03T03:04:11.677Z,98233.81
2022-11-03T03:06:43.689Z,98231.22
2022-11-03T03:09:18.216Z,98229.28
2022-11-03T03:11:50.655Z,98216.94
2022-11-03T03:14:22.039Z,98224.25
2022-11-03T03:16:56.136Z,98218.84
2022-11-03T03:19:32.638Z,98218.84
2022-11-03T03:22:05.533Z,98220.50
2022-11-03T03:24:39.854Z,98218.94
2022-11-03T03:27:13.903Z,98222.59
2022-11-03T03:29:46.388Z,98216.28
2022-11-03T03:32:18.709Z,98216.22
2022-11-03T03:34:49.785Z,98224.75
2022-11-03T03:37:20.240Z,98213.16
2022-11-03T03:39:52.900Z,98223.00
2022-11-03T03:42:25.145Z,98219.81
2022-11-03T03:44:55.120Z,98216.63
2022-11-03T03:47:28.254Z,98217.44
2022-11-03T03:49:58.128Z,98215.66
2022-11-03T03:52:27.972Z,98212.16
2022-11-03T03:54:58.018Z,98215.19
2022-11-03T03:57:30.523Z,98211.69
2022-11-03T04:00:00.392Z,98214.31
2022-11-03T04:02:29.985Z,98210.44
2022-11-03T04:04:59.841Z,98215.16
2022-11-03T04:07:46.410Z,98218.25
2022-11-03T04:10:16.486Z,98211.03
2022-11-03T04:13:04.984Z,98215.03
2022-11-03T04:15:57.295Z,98213.38
2022-11-03T04:18:44.013Z,98204.28
2022-11-03T04:21:32.235Z,98210.44
2022-11-03T04:24:02.130Z,98200.31
2022-11-03T04:26:31.874Z,98202.03
2022-11-03T04:29:03.330Z,98210.41
2022-11-03T04:31:35.380Z,98196.75
2022-11-03T04:34:06.392Z,98194.53
2022-11-03T04:36:36.111Z,98206.25
2022-11-03T04:39:15.587Z,98204.97
2022-11-03T04:41:45.347Z,98206.88
2022-11-03T04:44:17.652Z,98200.81
2022-11-03T04:46:47.985Z,98196.84
2022-11-03T04:49:22.546Z,98201.16
2022-11-03T04:51:52.468Z,98207.38
2022-11-03T04:54:24.410Z,98201.66
2022-11-03T04:56:54.027Z,98202.34
2022-11-03T04:59:26.073Z,98205.78
2022-11-03T05:01:55.974Z,98203.13
2022-11-03T05:04:26.170Z,98195.75
2022-11-03T05:06:55.468Z,98184.72
2022-11-03T05:09:27.800Z,98184.66
2022-11-03T05:11:57.757Z,98183.16
2022-11-03T05:14:30.383Z,98181.03
2022-11-03T05:17:00.128Z,98179.75
2022-11-03T05:19:32.154Z,98172.97
2022-11-03T05:22:02.829Z,98170.22
2022-11-03T05:24:33.469Z,98174.47
2022-11-03T05:27:02.923Z,98171.41
2022-11-03T05:29:37.751Z,98181.25
2022-11-03T05:32:12.722Z,98169.88
2022-11-03T05:34:45.141Z,98177.00
2022-11-03T05:37:27.139Z,98166.97
2022-11-03T05:39:59.779Z,98169.78
2022-11-03T05:42:35.439Z,98170.13
2022-11-03T05:45:14.234Z,98175.34
2022-11-03T05:47:43.879Z,98175.22
2022-11-03T05:50:20.698Z,98167.84
2022-11-03T05:52:52.003Z,98177.38
2022-11-03T05:55:32.819Z,98167.28
2022-11-03T05:58:06.012Z,98165.25
2022-11-03T06:00:48.129Z,98180.16
2022-11-03T06:03:20.636Z,98183.38
2022-11-03T06:05:50.039Z,98181.00
2022-11-03T06:10:59.815Z,98188.94
2022-11-03T06:13:32.480Z,98183.13
2022-11-03T06:16:06.437Z,98188.06
2022-11-03T06:18:38.373Z,98179.75
2022-11-03T06:21:09.578Z,98184.81
2022-11-03T06:23:40.441Z,98187.28
2022-11-03T06:26:16.688Z,98187.22
2022-11-03T06:28:46.757Z,98191.56
2022-11-03T06:31:23.149Z,98191.59
2022-11-03T06:33:54.033Z,98193.72
2022-11-03T06:36:26.252Z,98200.09
2022-11-03T06:38:58.150Z,98201.03
2022-11-03T06:41:28.457Z,98203.03
2022-11-03T06:43:58.226Z,98202.72
2022-11-03T06:46:29.150Z,98205.34
2022-11-03T06:49:01.958Z,98201.03
2022-11-03T06:51:35.950Z,98200.09
2022-11-03T06:54:10.309Z,98202.25
2022-11-03T06:56:40.002Z,98206.59
2022-11-03T06:59:11.613Z,98210.72
2022-11-03T07:01:42.676Z,98208.81
2022-11-03T07:04:18.456Z,98207.03
2022-11-03T07:06:52.999Z,98206.00
2022-11-03T07:09:26.456Z,98206.44
2022-11-03T07:11:57.133Z,98207.47
2022-11-03T07:14:28.583Z,98195.72
2022-11-03T07:17:02.499Z,98202.34
2022-11-03T07:19:34.884Z,98195.31
2022-11-03T07:22:06.533Z,98197.53
2022-11-03T07:24:38.169Z,98197.47
2022-11-03T07:27:16.615Z,98204.94
2022-11-03T07:29:46.702Z,98191.31
2022-11-03T07:32:20.083Z,98200.50
2022-11-03T07:34:50.203Z,98194.63
2022-11-03T07:37:22.730Z,98187.59
2022-11-03T07:39:52.459Z,98183.06
2022-11-03T07:42:23.889Z,98182.06
2022-11-03T07:44:54.225Z,98181.22
2022-11-03T07:47:26.883Z,98175.88
2022-11-03T07:49:56.725Z,98180.47
2022-11-03T07:52:27.417Z,98169.56
2022-11-03T07:54:58.176Z,98166.09
2022-11-03T07:57:30.744Z,98172.97
2022-11-03T08:00:09.044Z,98163.94
2022-11-03T08:02:45.286Z,98159.84
2022-11-03T08:05:15.144Z,98160.91
2022-11-03T08:07:44.705Z,98154.63
2022-11-03T08:10:15.310Z,98150.38
2022-11-03T08:12:46.661Z,98147.53
2022-11-03T08:15:16.862Z,98144.69
2022-11-03T08:17:50.941Z,98136.50
2022-11-03T08:20:22.761Z,98141.66
2022-11-03T08:23:19.595Z,98136.63
2022-11-03T08:25:42.116Z,98130.06
2022-11-03T08:28:11.493Z,98129.44
2022-11-03T08:30:40.822Z,98127.06
2022-11-03T08:33:11.540Z,98120.66
2022-11-03T08:35:42.615Z,98112.28
2022-11-03T08:38:12.013Z,98109.31
2022-11-03T08:40:42.932Z,98107.13
2022-11-03T08:43:12.459Z,98109.72
2022-11-03T08:45:41.884Z,98101.31
2022-11-03T08:48:12.622Z,98102.66
2022-11-03T08:50:43.457Z,98090.91
2022-11-03T08:53:13.494Z,98089.88
2022-11-03T08:55:43.099Z,98086.81
2022-11-03T08:58:12.471Z,98086.38
2022-11-03T09:00:42.147Z,98075.41
2022-11-03T09:03:13.441Z,98082.22
2022-11-03T09:05:42.870Z,98080.84
2022-11-03T09:11:01.990Z,98068.69
2022-11-03T09:13:31.432Z,98065.69
2022-11-03T09:16:00.696Z,98067.78
2022-11-03T09:18:33.046Z,98065.53
2022-11-03T09:21:03.042Z,98063.44
2022-11-03T09:23:32.364Z,98068.63
2022-11-03T09:26:01.664Z,98063.50
2022-11-03T09:28:31.122Z,98058.28
2022-11-03T09:31:00.438Z,98055.31
2022-11-03T09:33:31.531Z,98048.63
2022-11-03T09:36:01.921Z,98040.78
2022-11-03T09:38:31.238Z,98044.78
2022-11-03T09:41:01.405Z,98042.53
2022-11-03T09:43:33.393Z,98047.75
2022-11-03T09:46:02.880Z,98044.28
2022-11-03T09:48:34.517Z,98045.53
2022-11-03T09:51:04.047Z,98034.22
2022-11-03T09:53:37.370Z,98032.78
2022-11-03T09:56:07.813Z,98028.59
2022-11-03T09:58:37.291Z,98017.69
2022-11-03T10:01:07.335Z,98015.50
2022-11-03T10:03:39.221Z,98012.91
2022-11-03T10:06:12.765Z,98004.19
2022-11-03T10:08:47.622Z,98000.69
2022-11-03T10:11:17.569Z,97992.22
2022-11-03T10:13:49.133Z,97990.97
2022-11-03T10:16:22.196Z,97991.84
2022-11-03T10:18:54.360Z,97978.53
2022-11-03T10:21:28.982Z,97977.94
2022-11-03T10:23:58.308Z,97964.06
2022-11-03T10:26:27.914Z,97946.22
2022-11-03T10:29:02.079Z,97951.34
2022-11-03T10:31:36.211Z,97949.69
2022-11-03T10:34:07.924Z,97941.69
2022-11-03T10:36:37.668Z,97936.19
2022-11-03T10:39:27.272Z,97933.91
2022-11-03T10:42:01.184Z,97922.91
2022-11-03T10:44:32.254Z,97920.09
2022-11-03T10:47:02.898Z,97915.28
2022-11-03T10:49:39.351Z,97910.91
2022-11-03T10:52:20.684Z,97903.47
2022-11-03T10:54:50.234Z,97898.19
2022-11-03T10:57:19.787Z,97890.03
2022-11-03T10:59:51.308Z,97892.66
2022-11-03T11:02:22.419Z,97888.81
2022-11-03T11:04:59.041Z,97882.00
2022-11-03T11:07:33.654Z,97878.75
2022-11-03T11:10:08.687Z,97875.00
2022-11-03T11:12:38.017Z,97868.00
2022-11-03T11:15:40.985Z,97867.50
2022-11-03T11:18:10.518Z,97868.50
2022-11-03T11:20:42.790Z,97859.78
2022-11-03T11:23:49.447Z,97855.25
2022-11-03T11:26:42.652Z,97840.09
2022-11-03T11:29:43.559Z,97834.31
2022-11-03T11:32:49.580Z,97825.59
2022-11-03T11:35:35.465Z,97818.47
2022-11-03T11:38:40.578Z,97819.13
2022-11-03T11:41:11.724Z,97819.34
2022-11-03T11:43:41.221Z,97817.28
2022-11-03T11:46:42.473Z,97817.50
2022-11-03T11:49:22.617Z,97802.78
2022-11-03T11:51:52.449Z,97795.59
2022-11-03T11:54:23.553Z,97798.00
2022-11-03T11:56:55.489Z,97796.69
2022-11-03T11:59:26.389Z,97791.81
2022-11-03T12:01:58.051Z,97790.41
2022-11-03T12:04:31.745Z,97782.31
2022-11-03T12:07:03.686Z,97777.13
2022-11-03T12:09:33.641Z,97775.13
2022-11-03T12:12:08.824Z,97768.78
2022-11-03T12:14:39.307Z,97760.78
2022-11-03T12:17:34.329Z,97757.81
2022-11-03T12:20:36.931Z,97746.34
2022-11-03T12:23:07.489Z,97742.53
2022-11-03T12:25:40.203Z,97737.19
2022-11-03T12:28:11.373Z,97725.34
2022-11-03T12:30:40.639Z,97727.66
2022-11-03T12:33:10.951Z,97718.22
2022-11-03T12:35:41.019Z,97713.00
2022-11-03T12:38:13.444Z,97710.41
2022-11-03T12:40:42.652Z,97712.91
2022-11-03T12:43:14.726Z,97710.94
2022-11-03T12:45:44.512Z,97708.84
2022-11-03T12:48:14.128Z,97703.75
2022-11-03T12:50:43.405Z,97702.66
2022-11-03T12:53:12.858Z,97695.41
2022-11-03T12:55:44.900Z,97689.22
2022-11-03T12:58:15.723Z,97679.56
2022-11-03T13:00:49.915Z,97676.72
2022-11-03T13:03:24.365Z,97662.41
2022-11-03T13:05:53.717Z,97655.09
2022-11-03T13:08:23.732Z,97648.84
2022-11-03T13:10:53.277Z,97651.13
2022-11-03T13:13:25.243Z,97643.94
2022-11-03T13:15:55.954Z,97639.00
2022-11-03T13:18:25.853Z,97639.75
2022-11-03T13:20:56.706Z,97634.47
2022-11-03T13:23:26.119Z,97633.03
2022-11-03T13:25:55.716Z,97629.53
2022-11-03T13:28:26.412Z,97631.56
2022-11-03T13:30:57.059Z,97631.25
2022-11-03T13:33:26.796Z,97619.44
2022-11-03T13:35:56.129Z,97621.25
2022-11-03T13:38:25.465Z,97623.75
2022-11-03T13:40:57.174Z,97625.44
2022-11-03T13:43:29.164Z,97613.59
2022-11-03T13:46:02.329Z,97616.56
2022-11-03T13:51:21.664Z,97604.91
2022-11-03T13:59:31.373Z,97607.09
2022-11-03T14:04:51.762Z,97590.03
2022-11-03T14:07:20.958Z,97587.16
2022-11-03T14:09:50.204Z,97595.34
2022-11-03T14:12:31.862Z,97597.25
2022-11-03T14:15:04.126Z,97595.38
2022-11-03T14:17:33.477Z,97599.44
2022-11-03T14:20:11.512Z,97597.91
2022-11-03T14:22:41.625Z,97592.47
2022-11-03T14:25:11.164Z,97584.78
2022-11-03T14:27:41.060Z,97587.00
2022-11-03T14:30:13.316Z,97593.41
2022-11-03T14:32:42.560Z,97581.94
2022-11-03T14:35:11.835Z,97581.72
2022-11-03T14:37:41.562Z,97577.69
2022-11-03T14:40:33.967Z,97570.03
2022-11-03T14:43:02.535Z,97584.56
2022-11-03T14:45:35.814Z,97579.09
2022-11-03T14:48:08.468Z,97573.66
2022-11-03T14:50:38.920Z,97569.38
2022-11-03T14:53:08.229Z,97562.06
2022-11-03T14:55:37.627Z,97560.97
2022-11-03T14:58:07.132Z,97562.47
2022-11-03T15:00:38.043Z,97555.63
2022-11-03T15:03:07.915Z,97561.84
2022-11-03T15:05:46.545Z,97558.78
2022-11-03T15:08:18.439Z,97550.59
2022-11-03T15:10:48.611Z,97543.94
2022-11-03T15:13:18.065Z,97530.03
2022-11-03T15:15:49.791Z,97526.25
2022-11-03T15:18:19.277Z,97520.00
2022-11-03T15:20:49.158Z,97530.84
2022-11-03T15:26:08.594Z,97527.88
2022-11-03T15:28:37.901Z,97512.81
2022-11-03T15:31:08.872Z,97511.84
2022-11-03T15:33:38.429Z,97514.00
2022-11-03T15:36:09.073Z,97511.97
2022-11-03T15:38:38.873Z,97511.63
2022-11-03T15:41:17.453Z,97501.91
2022-11-03T15:43:48.566Z,97513.59
2022-11-03T15:46:20.270Z,97498.97
2022-11-03T15:48:49.947Z,97493.06
2022-11-03T15:51:19.264Z,97487.25
2022-11-03T15:53:54.882Z,97478.66
2022-11-03T15:56:28.064Z,97481.63
2022-11-03T15:58:57.316Z,97479.13
2022-11-03T16:01:29.448Z,97483.59
2022-11-03T16:03:59.895Z,97479.22
2022-11-03T16:07:01.191Z,97473.19
2022-11-03T16:09:18.600Z,97474.84
2022-11-03T16:11:47.872Z,97475.72
2022-11-03T16:14:17.457Z,97473.66
2022-11-03T16:16:48.601Z,97472.97
2022-11-03T16:19:18.076Z,97465.69
2022-11-03T16:21:47.583Z,97467.09
2022-11-03T16:24:16.968Z,97481.84
2022-11-03T16:26:50.752Z,97464.91
2022-11-03T16:29:20.241Z,97465.16
2022-11-03T16:31:51.481Z,97464.06
2022-11-03T16:34:20.705Z,97460.22
2022-11-03T16:36:49.910Z,97458.69
2022-11-03T16:39:23.248Z,97455.31
2022-11-03T16:41:54.855Z,97452.03
2022-11-03T16:44:25.512Z,97441.34
2022-11-03T16:46:56.260Z,97432.13
2022-11-03T16:49:25.646Z,97425.09
2022-11-03T16:51:55.030Z,97426.50
2022-11-03T16:54:24.797Z,97415.94
2022-11-03T16:56:55.057Z,97417.31
2022-11-03T16:59:26.427Z,97416.34
2022-11-03T17:01:57.668Z,97408.63
2022-11-03T17:04:27.569Z,97399.75
2022-11-03T17:06:56.862Z,97409.25
2022-11-03T17:09:26.311Z,97410.00
2022-11-03T17:11:58.763Z,97402.69
2022-11-03T17:14:28.177Z,97405.19
2022-11-03T17:16:58.984Z,97400.72
2022-11-03T17:19:28.339Z,97400.72
2022-11-03T17:21:57.791Z,97398.53
2022-11-03T17:24:28.301Z,97402.75
2022-11-03T17:27:01.772Z,97394.25
2022-11-03T17:29:35.521Z,97401.13
2022-11-03T17:32:07.209Z,97387.50
2022-11-03T17:34:36.497Z,97388.91
2022-11-03T17:37:05.888Z,97393.78
2022-11-03T17:39:37.235Z,97392.81
2022-11-03T17:42:16.176Z,97392.56
2022-11-03T17:44:45.915Z,97390.72
2022-11-03T17:47:16.874Z,97383.66
2022-11-03T17:49:47.156Z,97379.72
2022-11-03T17:52:23.462Z,97374.34
2022-11-03T17:54:58.548Z,97357.88
2022-11-03T17:57:28.763Z,97358.25
2022-11-03T18:00:00.482Z,97357.16
2022-11-03T18:02:35.015Z,97353.81
2022-11-03T18:05:20.263Z,97355.13
2022-11-03T18:07:52.590Z,97352.50
2022-11-03T18:10:22.558Z,97354.72
2022-11-03T18:13:13.037Z,97353.72
2022-11-03T18:15:42.549Z,97348.81
2022-11-03T18:18:18.823Z,97346.53
2022-11-03T18:20:53.361Z,97345.56
2022-11-03T18:23:24.608Z,97338.19
2022-11-03T18:25:55.830Z,97325.84
2022-11-03T18:28:25.159Z,97329.31
2022-11-03T18:30:55.808Z,97326.50
2022-11-03T18:33:28.527Z,97321.38
2022-11-03T18:35:58.237Z,97316.66
2022-11-03T18:38:28.189Z,97308.69
2022-11-03T18:40:57.867Z,97309.44
2022-11-03T18:43:27.456Z,97307.16
2022-11-03T18:45:57.579Z,97311.47
2022-11-03T18:48:28.531Z,97307.09
2022-11-03T18:51:02.786Z,97300.25
2022-11-03T18:53:32.889Z,97302.19
2022-11-03T18:56:02.989Z,97297.88
2022-11-03T18:58:33.210Z,97297.22
2022-11-03T19:01:05.242Z,97297.19
2022-11-03T19:03:35.936Z,97292.81
2022-11-03T19:06:05.447Z,97280.31
2022-11-03T19:08:35.398Z,97278.78
2022-11-03T19:11:05.206Z,97273.09
2022-11-03T19:13:36.119Z,97262.41
2022-11-03T19:16:11.063Z,97256.50
2022-11-03T19:18:42.274Z,97257.38
2022-11-03T19:21:14.717Z,97244.69
2022-11-03T19:23:47.774Z,97244.78
2022-11-03T19:26:22.525Z,97247.47
2022-11-03T19:28:54.618Z,97232.59
2022-11-03T19:31:27.259Z,97227.41
2022-11-03T19:33:58.946Z,97218.00
2022-11-03T19:36:31.396Z,97204.50
2022-11-03T19:39:01.095Z,97207.84
2022-11-03T19:41:47.839Z,97208.69
2022-11-03T19:44:17.217Z,97214.31
2022-11-03T19:46:46.454Z,97200.00
2022-11-03T19:49:17.306Z,97192.56
2022-11-03T19:51:47.292Z,97184.34
2022-11-03T19:54:18.931Z,97187.81
2022-11-03T19:56:49.040Z,97174.94
2022-11-03T19:59:19.368Z,97175.75
2022-11-03T20:01:49.869Z,97169.34
2022-11-03T20:04:21.031Z,97172.34
2022-11-03T20:06:50.301Z,97162.13
2022-11-03T20:09:20.632Z,97151.09
2022-11-03T20:11:49.854Z,97141.53
2022-11-03T20:14:26.120Z,97148.84
2022-11-03T20:16:56.489Z,97161.88
2022-11-03T20:19:27.209Z,97168.16
2022-11-03T20:21:56.504Z,97157.78
2022-11-03T20:24:25.763Z,97155.56
2022-11-03T20:26:55.140Z,97149.28
2022-11-03T20:29:24.792Z,97155.16
2022-11-03T20:31:54.203Z,97154.75
2022-11-03T20:34:23.910Z,97156.31
2022-11-03T20:36:54.747Z,97146.81
2022-11-03T20:39:25.621Z,97149.94
2022-11-03T20:41:56.826Z,97141.31
2022-11-03T20:44:26.348Z,97127.81
2022-11-03T20:46:55.735Z,97129.88
2022-11-03T20:49:25.088Z,97131.25
2022-11-03T20:51:56.232Z,97117.16
2022-11-03T20:54:25.872Z,97121.59
2022-11-03T20:56:55.311Z,97114.03
2022-11-03T20:59:26.813Z,97107.56
2022-11-03T21:01:57.403Z,97103.84
2022-11-03T21:04:27.326Z,97109.38
2022-11-03T21:06:58.316Z,97107.09
2022-11-03T21:09:27.230Z,97100.03
2022-11-03T21:11:56.955Z,97100.81
2022-11-03T21:14:27.550Z,97093.94
2022-11-03T21:17:14.461Z,97103.69
2022-11-03T21:20:08.233Z,97106.47
2022-11-03T21:22:56.643Z,97106.25
2022-11-03T21:25:26.290Z,97106.47
2022-11-03T21:27:56.144Z,97095.50
2022-11-03T21:30:25.618Z,97099.19
2022-11-03T21:32:54.611Z,97091.56
2022-11-03T21:35:24.497Z,97082.06
2022-11-03T21:37:55.463Z,97074.97
2022-11-03T21:40:24.846Z,97068.44
2022-11-03T21:43:11.868Z,97078.44
2022-11-03T21:45:41.522Z,97065.16
2022-11-03T21:48:28.357Z,97055.94
2022-11-03T21:51:02.525Z,97045.44
2022-11-03T21:53:33.512Z,97046.78
2022-11-03T21:56:02.924Z,97054.06
2022-11-03T21:58:32.459Z,97048.72
2022-11-03T22:01:05.152Z,97049.53
2022-11-03T22:03:35.256Z,97050.19
2022-11-03T22:06:05.415Z,97043.25
2022-11-03T22:08:36.430Z,97033.53
2022-11-03T22:11:20.429Z,97027.38
2022-11-03T22:13:49.948Z,97017.22
2022-11-03T22:16:36.822Z,97017.75
2022-11-03T22:19:25.384Z,97005.91
2022-11-03T22:22:12.498Z,97005.25
2022-11-03T22:25:01.038Z,96987.66
2022-11-03T22:27:31.399Z,96986.91
2022-11-03T22:30:18.697Z,96982.09
2022-11-03T22:32:52.239Z,96992.19
2022-11-03T22:35:39.817Z,96990.56
2022-11-03T22:38:10.821Z,96993.75
2022-11-03T22:41:00.549Z,96988.31
2022-11-03T22:43:48.335Z,96991.66
2022-11-03T22:46:18.942Z,96980.13
2022-11-03T22:48:48.377Z,96978.19
2022-11-03T22:51:18.489Z,96981.47
2022-11-03T22:54:05.061Z,96983.09
2022-11-03T22:56:36.515Z,96979.19
2022-11-03T22:59:06.236Z,96975.16
2022-11-03T23:01:36.338Z,96974.06
2022-11-03T23:04:07.856Z,96966.91
2022-11-03T23:06:39.089Z,96963.06
2022-11-03T23:09:08.835Z,96957.00
2022-11-03T23:11:39.748Z,96951.22
2022-11-03T23:14:11.113Z,96945.69
2022-11-03T23:16:43.440Z,96944.66
2022-11-03T23:19:31.520Z,96943.34
2022-11-03T23:22:01.049Z,96940.84
2022-11-03T23:24:48.388Z,96929.84
2022-11-03T23:27:19.967Z,96919.47
2022-11-03T23:29:49.334Z,96918.81
2022-11-03T23:32:18.914Z,96917.63
2022-11-03T23:34:48.439Z,96903.28
2022-11-03T23:37:18.152Z,96898.44
2022-11-03T23:39:48.016Z,96904.13
2022-11-03T23:42:21.372Z,96895.00
2022-11-03T23:45:08.062Z,96895.13
2022-11-03T23:47:54.608Z,96895.78
2022-11-03T23:50:24.204Z,96892.72
2022-11-03T23:52:53.621Z,96876.66
2022-11-03T23:55:22.677Z,96884.47
2022-11-03T23:58:10.476Z,96880.47
